createdAt,value
2022-10-13T00:00:37.799Z,50.852856
2022-10-13T00:01:37.758Z,50.852661
2022-10-13T00:02:37.771Z,50.852776
2022-10-13T00:03:37.752Z,50.852726
2022-10-13T00:04:37.731Z,50.852798
2022-10-13T00:05:37.725Z,50.852783
2022-10-13T00:06:37.718Z,50.852718
2022-10-13T00:07:37.720Z,50.852791
2022-10-13T00:08:37.728Z,50.852924
2022-10-13T00:09:37.699Z,50.852863
2022-10-13T00:10:37.703Z,50.852905
2022-10-13T00:11:37.714Z,50.852806
2022-10-13T00:12:37.691Z,50.852695
2022-10-13T00:13:37.681Z,50.852699
2022-10-13T00:14:37.667Z,50.852604
2022-10-13T00:15:37.678Z,50.852749
2022-10-13T00:16:37.665Z,50.852806
2022-10-13T00:17:37.652Z,50.852833
2022-10-13T00:18:37.649Z,50.852844
2022-10-13T00:19:37.641Z,50.852734
2022-10-13T00:20:37.677Z,50.852695
2022-10-13T00:21:37.622Z,50.852726
2022-10-13T00:22:37.614Z,50.852795
2022-10-13T00:23:37.614Z,50.852776
2022-10-13T00:24:37.602Z,50.852722
2022-10-13T00:25:37.591Z,50.852741
2022-10-13T00:26:37.609Z,50.852737
2022-10-13T00:27:37.581Z,50.852749
2022-10-13T00:28:37.620Z,50.852764
2022-10-13T00:29:37.571Z,50.852776
2022-10-13T00:30:37.568Z,50.852848
2022-10-13T00:31:37.591Z,50.852768
2022-10-13T00:32:37.543Z,50.852787
2022-10-13T00:33:37.539Z,50.852741
2022-10-13T00:34:37.556Z,50.852707
2022-10-13T00:35:37.531Z,50.852745
2022-10-13T00:36:37.554Z,50.852718
2022-10-13T00:37:37.520Z,50.852837
2022-10-13T00:38:37.517Z,50.852863
2022-10-13T00:39:37.507Z,50.852970
2022-10-13T00:40:37.504Z,50.852848
2022-10-13T00:41:37.499Z,50.852951
2022-10-13T00:42:44.514Z,50.853081
2022-10-13T00:43:37.478Z,50.852928
2022-10-13T00:44:37.483Z,50.853161
2022-10-13T00:45:37.474Z,50.853226
2022-10-13T00:46:37.486Z,50.853081
2022-10-13T00:47:37.469Z,50.853226
2022-10-13T00:48:37.479Z,50.853165
2022-10-13T00:49:37.448Z,50.853119
2022-10-13T00:50:37.454Z,50.853146
2022-10-13T00:51:37.439Z,50.853237
2022-10-13T00:52:37.432Z,50.853191
2022-10-13T00:53:37.427Z,50.852966
2022-10-13T00:54:37.427Z,50.852993
2022-10-13T00:55:37.408Z,50.853054
2022-10-13T00:56:37.404Z,50.852764
2022-10-13T00:57:37.403Z,50.852665
2022-10-13T00:58:37.399Z,50.852516
2022-10-13T00:59:37.421Z,50.852188
2022-10-13T01:00:37.413Z,50.852303
2022-10-13T01:01:37.407Z,50.852356
2022-10-13T01:02:37.369Z,50.852512
2022-10-13T01:03:37.373Z,50.852394
2022-10-13T01:04:37.387Z,50.852444
2022-10-13T01:05:37.350Z,50.852547
2022-10-13T01:06:37.350Z,50.852623
2022-10-13T01:07:37.338Z,50.852646
2022-10-13T01:08:37.327Z,50.852768
2022-10-13T01:09:37.352Z,50.852749
2022-10-13T01:10:37.327Z,50.852715
2022-10-13T01:11:37.317Z,50.852631
2022-10-13T01:12:37.308Z,50.852757
2022-10-13T01:13:37.305Z,50.852703
2022-10-13T01:14:37.321Z,50.852718
2022-10-13T01:15:37.298Z,50.852837
2022-10-13T01:16:37.291Z,50.852791
2022-10-13T01:17:37.276Z,50.852776
2022-10-13T01:18:37.272Z,50.852764
2022-10-13T01:19:37.289Z,50.852741
2022-10-13T01:20:37.271Z,50.852547
2022-10-13T01:21:37.268Z,50.852539
2022-10-13T01:22:37.246Z,50.852749
2022-10-13T01:23:37.238Z,50.852840
2022-10-13T01:24:37.248Z,50.852764
2022-10-13T01:25:37.224Z,50.852753
2022-10-13T01:26:37.239Z,50.852840
2022-10-13T01:27:37.215Z,50.852840
2022-10-13T01:28:37.257Z,50.852779
2022-10-13T01:29:37.193Z,50.852802
2022-10-13T01:30:37.216Z,50.852791
2022-10-13T01:31:37.193Z,50.852730
2022-10-13T01:32:37.196Z,50.852646
2022-10-13T01:33:37.174Z,50.852688
2022-10-13T01:34:37.164Z,50.852684
2022-10-13T01:35:37.155Z,50.852730
2022-10-13T01:36:37.157Z,50.852715
2022-10-13T01:37:37.144Z,50.852722
2022-10-13T01:38:37.155Z,50.852688
2022-10-13T01:39:37.121Z,50.852680
2022-10-13T01:40:37.123Z,50.852772
2022-10-13T01:41:37.123Z,50.852646
2022-10-13T01:42:37.106Z,50.852646
2022-10-13T01:43:37.134Z,50.852673
2022-10-13T01:44:37.123Z,50.852707
2022-10-13T01:45:37.080Z,50.852707
2022-10-13T01:46:37.093Z,50.852745
2022-10-13T01:47:37.079Z,50.852722
2022-10-13T01:48:37.074Z,50.852764
2022-10-13T01:49:37.059Z,50.852753
2022-10-13T01:50:37.085Z,50.852703
2022-10-13T01:51:37.065Z,50.852646
2022-10-13T01:52:37.044Z,50.852772
2022-10-13T01:53:37.051Z,50.852776
2022-10-13T01:54:37.038Z,50.852772
2022-10-13T01:55:37.030Z,50.852798
2022-10-13T01:56:37.040Z,50.852783
2022-10-13T01:57:37.015Z,50.852798
2022-10-13T01:58:37.008Z,50.852791
2022-10-13T01:59:37.001Z,50.852810
2022-10-13T02:00:37.016Z,50.852798
2022-10-13T02:01:37.010Z,50.852829
2022-10-13T02:02:36.994Z,50.852741
2022-10-13T02:03:36.976Z,50.852650
2022-10-13T02:04:36.972Z,50.852718
2022-10-13T02:05:36.979Z,50.852779
2022-10-13T02:06:36.948Z,50.852787
2022-10-13T02:07:36.955Z,50.852737
2022-10-13T02:08:36.937Z,50.852795
2022-10-13T02:09:36.954Z,50.852695
2022-10-13T02:10:36.943Z,50.852699
2022-10-13T02:11:36.915Z,50.852684
2022-10-13T02:12:36.915Z,50.852818
2022-10-13T02:13:36.904Z,50.852814
2022-10-13T02:14:36.904Z,50.852753
2022-10-13T02:15:36.969Z,50.852669
2022-10-13T02:16:36.891Z,50.852654
2022-10-13T02:17:36.881Z,50.852669
2022-10-13T02:18:36.893Z,50.852646
2022-10-13T02:19:36.872Z,50.852703
2022-10-13T02:20:36.877Z,50.852741
2022-10-13T02:21:36.886Z,50.852760
2022-10-13T02:22:36.874Z,50.852711
2022-10-13T02:23:36.870Z,50.852734
2022-10-13T02:24:36.859Z,50.852741
2022-10-13T02:25:36.835Z,50.852707
2022-10-13T02:26:36.823Z,50.852749
2022-10-13T02:27:36.820Z,50.852753
2022-10-13T02:28:36.877Z,50.852734
2022-10-13T02:29:36.825Z,50.852573
2022-10-13T02:30:36.815Z,50.852734
2022-10-13T02:31:36.828Z,50.852718
2022-10-13T02:32:36.786Z,50.852684
2022-10-13T02:33:36.778Z,50.852795
2022-10-13T02:34:36.777Z,50.852821
2022-10-13T02:35:36.785Z,50.852806
2022-10-13T02:36:36.770Z,50.852768
2022-10-13T02:37:36.756Z,50.852726
2022-10-13T02:38:36.769Z,50.852589
2022-10-13T02:39:36.759Z,50.852631
2022-10-13T02:40:36.761Z,50.852852
2022-10-13T02:41:36.744Z,50.852795
2022-10-13T02:42:36.731Z,50.852745
2022-10-13T02:43:36.729Z,50.852924
2022-10-13T02:44:36.718Z,50.852802
2022-10-13T02:45:36.700Z,50.852955
2022-10-13T02:46:36.721Z,50.852707
2022-10-13T02:47:36.691Z,50.852875
2022-10-13T02:48:36.700Z,50.852749
2022-10-13T02:49:36.705Z,50.852848
2022-10-13T02:50:36.677Z,50.852867
2022-10-13T02:51:40.135Z,50.852970
2022-10-13T02:52:36.658Z,50.852924
2022-10-13T02:53:36.660Z,50.852840
2022-10-13T02:54:36.652Z,50.852695
2022-10-13T02:55:36.679Z,50.852661
2022-10-13T02:56:36.634Z,50.852806
2022-10-13T02:57:36.627Z,50.852806
2022-10-13T02:58:36.623Z,50.853203
2022-10-13T02:59:36.606Z,50.852951
2022-10-13T03:00:36.641Z,50.852661
2022-10-13T03:01:36.622Z,50.852661
2022-10-13T03:02:36.591Z,50.852718
2022-10-13T03:03:36.589Z,50.852772
2022-10-13T03:04:36.592Z,50.852772
2022-10-13T03:05:36.570Z,50.852856
2022-10-13T03:06:36.572Z,50.852974
2022-10-13T03:07:36.573Z,50.852917
2022-10-13T03:08:36.575Z,50.852962
2022-10-13T03:09:36.544Z,50.852978
2022-10-13T03:10:36.538Z,50.852978
2022-10-13T03:11:36.592Z,50.852978
2022-10-13T03:12:36.543Z,50.853310
2022-10-13T03:13:36.518Z,50.853310
2022-10-13T03:14:36.512Z,50.853310
2022-10-13T03:15:36.512Z,50.853310
2022-10-13T03:16:36.554Z,50.853310
2022-10-13T03:17:36.499Z,50.853386
2022-10-13T03:18:36.495Z,50.853104
2022-10-13T03:19:36.482Z,50.853439
2022-10-13T03:20:36.471Z,50.853439
2022-10-13T03:21:36.468Z,50.853439
2022-10-13T03:22:36.474Z,50.853439
2022-10-13T03:23:36.443Z,50.853245
2022-10-13T03:24:36.442Z,50.853245
2022-10-13T03:25:36.458Z,50.853436
2022-10-13T03:26:36.439Z,50.853340
2022-10-13T03:27:36.423Z,50.853249
2022-10-13T03:28:36.512Z,50.853249
2022-10-13T03:29:36.421Z,50.853249
2022-10-13T03:30:36.409Z,50.853249
2022-10-13T03:31:36.439Z,50.853249
2022-10-13T03:32:36.404Z,50.853249
2022-10-13T03:33:36.394Z,50.853249
2022-10-13T03:34:36.382Z,50.853249
2022-10-13T03:35:36.392Z,50.853249
2022-10-13T03:36:36.386Z,50.853249
2022-10-13T03:37:36.362Z,50.853283
2022-10-13T03:38:36.350Z,50.853390
2022-10-13T03:39:36.345Z,50.853172
2022-10-13T03:40:36.360Z,50.853172
2022-10-13T03:41:36.330Z,50.853340
2022-10-13T03:42:36.336Z,50.853340
2022-10-13T03:43:36.324Z,50.853340
2022-10-13T03:44:36.328Z,50.853340
2022-10-13T03:45:36.336Z,50.853340
2022-10-13T03:46:36.319Z,50.853340
2022-10-13T03:47:36.311Z,50.853340
2022-10-13T03:48:36.320Z,50.853340
2022-10-13T03:49:36.317Z,50.853340
2022-10-13T03:50:36.285Z,50.853340
2022-10-13T03:51:36.294Z,50.853340
2022-10-13T03:52:36.288Z,50.853340
2022-10-13T03:53:36.263Z,50.853340
2022-10-13T03:54:36.256Z,50.853340
2022-10-13T03:55:36.259Z,50.853340
2022-10-13T03:56:36.242Z,50.853340
2022-10-13T03:57:36.252Z,50.853340
2022-10-13T03:58:36.224Z,50.853340
2022-10-13T03:59:37.116Z,50.853340
2022-10-13T04:00:36.213Z,50.853340
2022-10-13T04:01:36.232Z,50.853340
2022-10-13T04:02:36.194Z,50.853340
2022-10-13T04:03:36.185Z,50.853340
2022-10-13T04:04:36.185Z,50.853340
2022-10-13T04:05:36.194Z,50.853340
2022-10-13T04:06:36.169Z,50.853340
2022-10-13T04:07:36.163Z,50.853035
2022-10-13T04:08:36.164Z,50.853058
2022-10-13T04:09:36.160Z,50.852974
2022-10-13T04:10:36.144Z,50.852959
2022-10-13T04:11:36.161Z,50.852806
2022-10-13T04:12:36.142Z,50.852749
2022-10-13T04:13:36.127Z,50.852825
2022-10-13T04:14:36.118Z,50.852707
2022-10-13T04:15:36.142Z,50.852707
2022-10-13T04:16:36.129Z,50.852688
2022-10-13T04:17:36.101Z,50.852779
2022-10-13T04:18:36.103Z,50.852753
2022-10-13T04:19:36.082Z,50.852718
2022-10-13T04:20:36.079Z,50.852791
2022-10-13T04:21:36.094Z,50.852844
2022-10-13T04:22:36.083Z,50.852833
2022-10-13T04:23:36.064Z,50.852863
2022-10-13T04:24:36.062Z,50.852829
2022-10-13T04:25:36.059Z,50.852814
2022-10-13T04:26:36.064Z,50.852688
2022-10-13T04:27:36.048Z,50.852837
2022-10-13T04:28:36.137Z,50.852718
2022-10-13T04:29:36.024Z,50.852840
2022-10-13T04:30:36.042Z,50.852814
2022-10-13T04:31:36.018Z,50.852589
2022-10-13T04:32:36.025Z,50.852592
2022-10-13T04:33:36.000Z,50.852798
2022-10-13T04:34:36.001Z,50.852955
2022-10-13T04:35:36.005Z,50.853230
2022-10-13T04:36:35.983Z,50.852982
2022-10-13T04:37:35.992Z,50.852993
2022-10-13T04:38:35.975Z,50.852940
2022-10-13T04:39:35.960Z,50.852890
2022-10-13T04:40:35.960Z,50.852852
2022-10-13T04:41:35.966Z,50.852898
2022-10-13T04:42:35.966Z,50.852737
2022-10-13T04:43:35.932Z,50.852768
2022-10-13T04:44:35.942Z,50.852711
2022-10-13T04:45:35.926Z,50.852730
2022-10-13T04:46:35.918Z,50.852757
2022-10-13T04:47:37.110Z,50.852673
2022-10-13T04:48:35.912Z,50.852692
2022-10-13T04:49:35.896Z,50.852699
2022-10-13T04:50:35.894Z,50.852757
2022-10-13T04:51:35.901Z,50.852715
2022-10-13T04:52:35.896Z,50.852783
2022-10-13T04:53:35.870Z,50.852802
2022-10-13T04:54:35.889Z,50.852795
2022-10-13T04:55:35.852Z,50.852757
2022-10-13T04:56:35.846Z,50.852749
2022-10-13T04:57:35.833Z,50.852829
2022-10-13T04:58:35.834Z,50.852791
2022-10-13T04:59:35.838Z,50.852863
2022-10-13T05:00:35.876Z,50.852871
2022-10-13T05:01:35.843Z,50.852753
2022-10-13T05:02:35.832Z,50.852768
2022-10-13T05:03:35.801Z,50.852715
2022-10-13T05:04:35.798Z,50.852737
2022-10-13T05:05:35.797Z,50.852760
2022-10-13T05:06:35.788Z,50.852776
2022-10-13T05:07:35.771Z,50.852825
2022-10-13T05:08:35.790Z,50.852818
2022-10-13T05:09:35.756Z,50.852795
2022-10-13T05:10:35.761Z,50.852661
2022-10-13T05:11:35.781Z,50.852814
2022-10-13T05:12:35.753Z,50.852715
2022-10-13T05:13:35.735Z,50.852753
2022-10-13T05:14:35.738Z,50.852745
2022-10-13T05:15:35.732Z,50.852753
2022-10-13T05:16:35.728Z,50.852772
2022-10-13T05:17:35.837Z,50.852718
2022-10-13T05:18:35.715Z,50.852737
2022-10-13T05:19:35.707Z,50.852715
2022-10-13T05:20:35.699Z,50.852642
2022-10-13T05:21:35.685Z,50.852749
2022-10-13T05:22:35.690Z,50.852718
2022-10-13T05:23:35.693Z,50.852737
2022-10-13T05:24:35.696Z,50.852779
2022-10-13T05:25:35.678Z,50.852901
2022-10-13T05:26:35.660Z,50.852810
2022-10-13T05:27:35.647Z,50.852695
2022-10-13T05:28:35.710Z,50.852753
2022-10-13T05:29:35.659Z,50.852810
2022-10-13T05:30:35.634Z,50.852753
2022-10-13T05:31:35.625Z,50.852798
2022-10-13T05:32:35.651Z,50.852764
2022-10-13T05:33:35.613Z,50.852734
2022-10-13T05:34:35.625Z,50.852772
2022-10-13T05:35:35.606Z,50.852741
2022-10-13T05:36:35.600Z,50.852722
2022-10-13T05:37:35.609Z,50.852718
2022-10-13T05:38:35.600Z,50.852829
2022-10-13T05:39:35.587Z,50.852779
2022-10-13T05:40:35.574Z,50.852764
2022-10-13T05:41:35.587Z,50.852768
2022-10-13T05:42:35.565Z,50.852818
2022-10-13T05:43:35.583Z,50.852833
2022-10-13T05:44:35.554Z,50.852909
2022-10-13T05:45:35.543Z,50.852768
2022-10-13T05:46:35.561Z,50.852795
2022-10-13T05:47:35.548Z,50.852768
2022-10-13T05:48:35.521Z,50.852818
2022-10-13T05:49:35.524Z,50.852844
2022-10-13T05:50:35.522Z,50.852661
2022-10-13T05:51:35.505Z,50.852657
2022-10-13T05:52:35.528Z,50.852493
2022-10-13T05:53:35.500Z,50.852589
2022-10-13T05:54:35.496Z,50.852646
2022-10-13T05:55:35.485Z,50.852592
2022-10-13T05:56:35.481Z,50.852665
2022-10-13T05:57:35.488Z,50.852745
2022-10-13T05:58:35.498Z,50.852783
2022-10-13T05:59:35.485Z,50.852711
2022-10-13T06:00:35.473Z,50.852844
2022-10-13T06:01:35.526Z,50.852688
2022-10-13T06:02:35.466Z,50.852608
2022-10-13T06:03:35.441Z,50.852669
2022-10-13T06:04:35.437Z,50.852692
2022-10-13T06:05:35.438Z,50.852856
2022-10-13T06:06:35.431Z,50.852798
2022-10-13T06:07:35.453Z,50.852707
2022-10-13T06:08:35.413Z,50.852707
2022-10-13T06:09:35.407Z,50.852718
2022-10-13T06:10:35.439Z,50.852787
2022-10-13T06:11:35.386Z,50.852757
2022-10-13T06:12:35.392Z,50.852745
2022-10-13T06:13:35.402Z,50.852768
2022-10-13T06:14:35.385Z,50.852711
2022-10-13T06:15:35.364Z,50.852699
2022-10-13T06:16:35.373Z,50.852661
2022-10-13T06:17:35.358Z,50.852680
2022-10-13T06:18:35.365Z,50.852726
2022-10-13T06:19:35.387Z,50.852642
2022-10-13T06:20:35.332Z,50.852715
2022-10-13T06:21:35.339Z,50.852745
2022-10-13T06:22:35.335Z,50.852772
2022-10-13T06:23:35.323Z,50.852768
2022-10-13T06:24:35.317Z,50.852646
2022-10-13T06:25:35.322Z,50.852757
2022-10-13T06:26:35.297Z,50.852737
2022-10-13T06:27:35.328Z,50.852707
2022-10-13T06:28:35.319Z,50.852608
2022-10-13T06:29:35.275Z,50.852730
2022-10-13T06:30:35.292Z,50.852741
2022-10-13T06:31:35.273Z,50.852669
2022-10-13T06:32:35.272Z,50.852707
2022-10-13T06:33:35.256Z,50.852684
2022-10-13T06:34:35.263Z,50.852818
2022-10-13T06:35:35.249Z,50.852818
2022-10-13T06:36:35.243Z,50.852818
2022-10-13T06:37:35.248Z,50.852818
2022-10-13T06:38:35.232Z,50.852715
2022-10-13T06:39:35.230Z,50.852722
2022-10-13T06:40:35.218Z,50.852764
2022-10-13T06:41:35.227Z,50.852882
2022-10-13T06:42:35.221Z,50.852901
2022-10-13T06:43:40.136Z,50.852726
2022-10-13T06:44:36.210Z,50.852718
2022-10-13T06:45:36.358Z,50.852856
2022-10-13T06:46:42.183Z,50.852852
2022-10-13T06:47:35.179Z,50.852783
2022-10-13T06:48:35.173Z,50.852760
2022-10-13T06:49:35.153Z,50.852707
2022-10-13T06:50:37.299Z,50.852715
2022-10-13T06:51:36.167Z,50.852703
2022-10-13T06:52:35.157Z,50.852661
2022-10-13T06:53:35.130Z,50.852787
2022-10-13T06:54:35.153Z,50.852871
2022-10-13T06:55:35.117Z,50.852821
2022-10-13T06:56:35.105Z,50.852833
2022-10-13T06:57:35.108Z,50.852978
2022-10-13T06:58:35.120Z,50.852875
2022-10-13T06:59:35.082Z,50.852459
2022-10-13T07:00:35.125Z,50.852726
2022-10-13T07:01:39.201Z,50.852859
2022-10-13T07:02:36.094Z,50.852818
2022-10-13T07:03:35.064Z,50.852676
2022-10-13T07:04:35.077Z,50.852623
2022-10-13T07:05:35.065Z,50.852974
2022-10-13T07:06:35.058Z,50.852798
2022-10-13T07:07:35.034Z,50.852482
2022-10-13T07:08:35.030Z,50.852619
2022-10-13T07:09:35.017Z,50.852699
2022-10-13T07:10:35.017Z,50.853043
2022-10-13T07:11:35.030Z,50.852928
2022-10-13T07:12:34.998Z,50.852707
2022-10-13T07:13:37.108Z,50.852657
2022-10-13T07:14:35.947Z,50.852737
2022-10-13T07:15:34.992Z,50.852875
2022-10-13T07:16:34.973Z,50.852596
2022-10-13T07:17:34.976Z,50.852657
2022-10-13T07:18:34.960Z,50.852711
2022-10-13T07:19:34.947Z,50.852650
2022-10-13T07:20:34.944Z,50.852779
2022-10-13T07:21:34.937Z,50.852516
2022-10-13T07:22:34.928Z,50.852776
2022-10-13T07:23:34.954Z,50.852726
2022-10-13T07:24:34.919Z,50.852554
2022-10-13T07:25:34.926Z,50.852554
2022-10-13T07:26:34.911Z,50.852737
2022-10-13T07:27:34.924Z,50.852776
2022-10-13T07:28:34.950Z,50.852932
2022-10-13T07:29:35.431Z,50.852776
2022-10-13T07:30:34.881Z,50.852615
2022-10-13T07:31:34.869Z,50.852737
2022-10-13T07:32:34.873Z,50.852699
2022-10-13T07:33:34.878Z,50.852715
2022-10-13T07:34:34.856Z,50.852764
2022-10-13T07:35:34.853Z,50.852673
2022-10-13T07:36:34.865Z,50.852661
2022-10-13T07:37:34.834Z,50.852665
2022-10-13T07:38:34.837Z,50.852695
2022-10-13T07:39:34.855Z,50.852642
2022-10-13T07:40:34.824Z,50.852623
2022-10-13T07:41:34.832Z,50.852760
2022-10-13T07:42:34.813Z,50.852341
2022-10-13T07:43:34.793Z,50.852657
2022-10-13T07:44:34.799Z,50.852631
2022-10-13T07:45:34.780Z,50.852711
2022-10-13T07:46:34.779Z,50.852730
2022-10-13T07:47:34.796Z,50.852737
2022-10-13T07:48:34.773Z,50.852711
2022-10-13T07:49:34.751Z,50.852654
2022-10-13T07:50:34.757Z,50.852776
2022-10-13T07:51:34.767Z,50.852699
2022-10-13T07:52:34.732Z,50.852791
2022-10-13T07:53:34.725Z,50.852741
2022-10-13T07:54:34.765Z,50.852730
2022-10-13T07:55:34.737Z,50.852669
2022-10-13T07:56:34.701Z,50.852749
2022-10-13T07:57:34.709Z,50.852707
2022-10-13T07:58:34.696Z,50.852703
2022-10-13T07:59:34.703Z,50.852772
2022-10-13T08:00:34.688Z,50.852654
2022-10-13T08:01:34.705Z,50.852764
2022-10-13T08:02:34.672Z,50.852543
2022-10-13T08:03:34.678Z,50.852673
2022-10-13T08:04:34.663Z,50.852863
2022-10-13T08:05:34.650Z,50.852722
2022-10-13T08:06:34.661Z,50.852783
2022-10-13T08:07:34.652Z,50.853088
2022-10-13T08:08:34.634Z,50.852741
2022-10-13T08:09:34.626Z,50.852863
2022-10-13T08:10:34.610Z,50.852711
2022-10-13T08:11:34.603Z,50.852684
2022-10-13T08:12:34.623Z,50.852737
2022-10-13T08:13:34.604Z,50.852730
2022-10-13T08:14:34.659Z,50.852707
2022-10-13T08:15:34.599Z,50.852806
2022-10-13T08:16:34.601Z,50.852791
2022-10-13T08:17:34.573Z,50.852844
2022-10-13T08:18:34.563Z,50.852760
2022-10-13T08:19:34.551Z,50.852772
2022-10-13T08:20:41.214Z,50.852818
2022-10-13T08:22:34.592Z,50.852749
2022-10-13T08:23:34.540Z,50.852779
2022-10-13T08:24:34.526Z,50.852730
2022-10-13T08:25:34.513Z,50.852757
2022-10-13T08:26:34.513Z,50.852798
2022-10-13T08:27:50.169Z,50.852814
2022-10-13T08:28:35.597Z,50.852947
2022-10-13T08:29:34.562Z,50.852718
2022-10-13T08:30:34.559Z,50.852772
2022-10-13T08:31:34.581Z,50.852795
2022-10-13T08:32:34.475Z,50.852734
2022-10-13T08:33:34.465Z,50.852600
2022-10-13T08:34:34.506Z,50.852615
2022-10-13T08:35:35.145Z,50.852585
2022-10-13T08:36:34.447Z,50.852676
2022-10-13T08:37:34.502Z,50.852734
2022-10-13T08:38:34.428Z,50.852760
2022-10-13T08:39:34.451Z,50.852692
2022-10-13T08:40:34.417Z,50.852776
2022-10-13T08:41:34.411Z,50.852722
2022-10-13T08:42:34.406Z,50.852745
2022-10-13T08:43:34.402Z,50.852749
2022-10-13T08:45:06.283Z,50.852760
2022-10-13T08:45:41.510Z,50.852871
2022-10-13T08:46:35.382Z,50.852875
2022-10-13T08:47:34.403Z,50.853058
2022-10-13T08:48:34.368Z,50.852821
2022-10-13T08:49:34.352Z,50.852783
2022-10-13T08:50:34.360Z,50.852741
2022-10-13T08:51:34.370Z,50.852718
2022-10-13T08:52:34.337Z,50.852688
2022-10-13T08:53:34.334Z,50.852600
2022-10-13T08:54:34.320Z,50.852592
2022-10-13T08:55:34.332Z,50.852726
2022-10-13T08:56:34.313Z,50.852734
2022-10-13T08:57:34.318Z,50.852818
2022-10-13T08:58:34.324Z,50.852745
2022-10-13T08:59:34.301Z,50.852772
2022-10-13T09:00:34.305Z,50.852825
2022-10-13T09:01:34.368Z,50.853054
2022-10-13T09:02:34.278Z,50.852825
2022-10-13T09:03:34.271Z,50.852802
2022-10-13T09:04:34.282Z,50.852760
2022-10-13T09:05:34.245Z,50.852795
2022-10-13T09:06:34.262Z,50.852737
2022-10-13T09:07:34.241Z,50.852646
2022-10-13T09:08:34.261Z,50.852722
2022-10-13T09:09:34.228Z,50.852573
2022-10-13T09:10:34.219Z,50.852570
2022-10-13T09:11:34.200Z,50.852650
2022-10-13T09:12:34.203Z,50.852570
2022-10-13T09:13:34.220Z,50.852631
2022-10-13T09:14:34.190Z,50.852634
2022-10-13T09:15:34.195Z,50.852673
2022-10-13T09:16:34.203Z,50.852814
2022-10-13T09:17:34.162Z,50.852650
2022-10-13T09:18:34.174Z,50.852665
2022-10-13T09:19:34.171Z,50.852673
2022-10-13T09:20:34.145Z,50.852676
2022-10-13T09:21:34.149Z,50.852745
2022-10-13T09:22:34.148Z,50.852844
2022-10-13T09:23:38.124Z,50.853001
2022-10-13T09:24:35.131Z,50.852875
2022-10-13T09:25:34.121Z,50.852749
2022-10-13T09:26:34.116Z,50.852783
2022-10-13T09:27:34.112Z,50.852715
2022-10-13T09:28:34.135Z,50.852726
2022-10-13T09:29:34.078Z,50.852604
2022-10-13T09:30:34.072Z,50.852577
2022-10-13T09:31:34.088Z,50.852524
2022-10-13T09:32:34.055Z,50.852547
2022-10-13T09:33:34.069Z,50.852589
2022-10-13T09:34:34.041Z,50.852749
2022-10-13T09:35:34.032Z,50.852795
2022-10-13T09:36:34.065Z,50.852783
2022-10-13T09:37:34.021Z,50.852894
2022-10-13T09:38:34.010Z,50.852795
2022-10-13T09:39:34.012Z,50.852654
2022-10-13T09:40:34.065Z,50.852772
2022-10-13T09:41:33.986Z,50.852783
2022-10-13T09:42:34.001Z,50.852753
2022-10-13T09:43:33.987Z,50.852867
2022-10-13T09:44:33.988Z,50.852871
2022-10-13T09:45:34.869Z,50.852901
2022-10-13T09:46:33.996Z,50.852821
2022-10-13T09:47:33.965Z,50.852772
2022-10-13T09:48:33.949Z,50.852776
2022-10-13T09:49:33.930Z,50.852848
2022-10-13T09:50:33.924Z,50.852810
2022-10-13T09:51:33.944Z,50.852856
2022-10-13T09:52:33.913Z,50.852779
2022-10-13T09:53:33.907Z,50.852814
2022-10-13T09:54:33.901Z,50.852837
2022-10-13T09:55:33.924Z,50.853233
2022-10-13T09:56:33.886Z,50.853947
2022-10-13T09:57:33.870Z,50.854500
2022-10-13T09:58:33.901Z,50.856052
2022-10-13T09:59:33.889Z,50.856396
2022-10-13T10:00:33.866Z,50.852577
2022-10-13T10:01:33.872Z,50.852547
2022-10-13T10:02:34.078Z,50.852551
2022-10-13T10:03:33.896Z,50.852596
2022-10-13T10:04:33.855Z,50.852554
2022-10-13T10:05:33.862Z,50.852535
2022-10-13T10:06:33.827Z,50.852497
2022-10-13T10:07:33.865Z,50.852535
2022-10-13T10:08:50.911Z,50.852535
2022-10-13T10:09:34.819Z,50.852524
2022-10-13T10:10:33.799Z,50.852573
2022-10-13T10:11:33.794Z,50.852722
2022-10-13T10:12:33.786Z,50.852802
2022-10-13T10:13:33.767Z,50.852722
2022-10-13T10:14:33.822Z,50.852715
2022-10-13T10:15:33.814Z,50.852665
2022-10-13T10:16:33.781Z,50.852646
2022-10-13T10:17:33.747Z,50.852699
2022-10-13T10:18:33.741Z,50.852802
2022-10-13T10:19:33.734Z,50.852676
2022-10-13T10:20:33.751Z,50.852562
2022-10-13T10:21:33.718Z,50.852592
2022-10-13T10:22:33.707Z,50.852707
2022-10-13T10:23:33.711Z,50.852707
2022-10-13T10:24:33.699Z,50.852776
2022-10-13T10:25:33.694Z,50.852753
2022-10-13T10:26:33.714Z,50.852612
2022-10-13T10:27:33.679Z,50.852859
2022-10-13T10:28:33.752Z,50.852772
2022-10-13T10:29:33.660Z,50.852493
2022-10-13T10:30:33.659Z,50.852676
2022-10-13T10:31:33.654Z,50.852726
2022-10-13T10:32:33.666Z,50.852917
2022-10-13T10:33:33.630Z,50.852676
2022-10-13T10:34:33.643Z,50.852676
2022-10-13T10:35:33.627Z,50.852692
2022-10-13T10:36:33.607Z,50.852894
2022-10-13T10:37:33.632Z,50.852894
2022-10-13T10:38:33.594Z,50.852985
2022-10-13T10:39:33.653Z,50.853046
2022-10-13T10:40:33.570Z,50.853039
2022-10-13T10:41:33.589Z,50.853168
2022-10-13T10:42:33.565Z,50.852734
2022-10-13T10:43:33.554Z,50.853096
2022-10-13T10:44:33.596Z,50.852844
2022-10-13T10:45:33.543Z,50.852825
2022-10-13T10:46:33.526Z,50.852871
2022-10-13T10:47:33.547Z,50.852898
2022-10-13T10:48:33.509Z,50.852840
2022-10-13T10:49:33.511Z,50.852818
2022-10-13T10:50:33.504Z,50.852718
2022-10-13T10:51:33.500Z,50.852776
2022-10-13T10:52:33.537Z,50.852856
2022-10-13T10:53:33.498Z,50.852806
2022-10-13T10:54:33.506Z,50.852825
2022-10-13T10:55:33.462Z,50.852734
2022-10-13T10:56:33.468Z,50.852692
2022-10-13T10:57:33.448Z,50.852772
2022-10-13T10:58:33.449Z,50.852734
2022-10-13T10:59:33.456Z,50.852741
2022-10-13T11:00:33.450Z,50.852619
2022-10-13T11:01:33.441Z,50.852688
2022-10-13T11:02:33.417Z,50.852654
2022-10-13T11:03:33.437Z,50.852711
2022-10-13T11:04:33.414Z,50.852726
2022-10-13T11:05:33.397Z,50.852749
2022-10-13T11:06:33.388Z,50.852814
2022-10-13T11:07:33.401Z,50.852829
2022-10-13T11:08:33.385Z,50.852821
2022-10-13T11:09:33.382Z,50.852821
2022-10-13T11:10:33.370Z,50.852844
2022-10-13T11:11:36.613Z,50.852787
2022-10-13T11:12:33.357Z,50.852894
2022-10-13T11:13:33.346Z,50.852783
2022-10-13T11:14:33.354Z,50.852753
2022-10-13T11:15:33.314Z,50.852665
2022-10-13T11:16:33.315Z,50.852764
2022-10-13T11:17:33.333Z,50.852818
2022-10-13T11:18:33.318Z,50.852840
2022-10-13T11:19:33.295Z,50.852741
2022-10-13T11:20:33.287Z,50.852734
2022-10-13T11:21:33.282Z,50.852726
2022-10-13T11:22:33.317Z,50.852764
2022-10-13T11:23:33.315Z,50.852818
2022-10-13T11:24:33.278Z,50.852940
2022-10-13T11:25:33.269Z,50.852814